sensor_id;sensor_type;location;lat;lon;timestamp;P1;durP1;ratioP1;P2;durP2;ratioP2
39864;SDS011;25538;48.392;9.976;2022-08-01T00:00:35;5.20;;;4.70;;
39864;SDS011;25538;48.392;9.976;2022-08-01T00:03:01;4.50;;;4.17;;
39864;SDS011;25538;48.392;9.976;2022-08-01T00:05:27;4.57;;;4.17;;
39864;SDS011;25538;48.392;9.976;2022-08-01T00:07:53;3.93;;;3.63;;
39864;SDS011;25538;48.392;9.976;2022-08-01T00:10:19;3.87;;;3.67;;
39864;SDS011;25538;48.392;9.976;2022-08-01T00:12:45;4.57;;;4.27;;
39864;SDS011;25538;48.392;9.976;2022-08-01T00:15:12;4.40;;;3.70;;
39864;SDS011;25538;48.392;9.976;2022-08-01T00:17:40;4.50;;;4.00;;
39864;SDS011;25538;48.392;9.976;2022-08-01T00:20:07;4.70;;;4.50;;
39864;SDS011;25538;48.392;9.976;2022-08-01T00:22:34;5.17;;;4.77;;
39864;SDS011;25538;48.392;9.976;2022-08-01T00:25:00;6.60;;;4.93;;
39864;SDS011;25538;48.392;9.976;2022-08-01T00:27:28;3.80;;;3.60;;
39864;SDS011;25538;48.392;9.976;2022-08-01T00:29:54;5.00;;;3.63;;
39864;SDS011;25538;48.392;9.976;2022-08-01T00:32:20;3.77;;;3.57;;
39864;SDS011;25538;48.392;9.976;2022-08-01T00:34:46;4.43;;;3.50;;
39864;SDS011;25538;48.392;9.976;2022-08-01T00:37:12;4.80;;;3.57;;
39864;SDS011;25538;48.392;9.976;2022-08-01T00:39:37;4.00;;;3.70;;
39864;SDS011;25538;48.392;9.976;2022-08-01T00:42:07;3.90;;;3.57;;
39864;SDS011;25538;48.392;9.976;2022-08-01T00:44:34;3.70;;;3.40;;
39864;SDS011;25538;48.392;9.976;2022-08-01T00:47:00;4.60;;;3.67;;
39864;SDS011;25538;48.392;9.976;2022-08-01T00:49:27;3.80;;;3.60;;
39864;SDS011;25538;48.392;9.976;2022-08-01T00:51:53;4.13;;;3.83;;
39864;SDS011;25538;48.392;9.976;2022-08-01T00:54:20;3.47;;;3.27;;
39864;SDS011;25538;48.392;9.976;2022-08-01T00:56:47;3.40;;;3.10;;
39864;SDS011;25538;48.392;9.976;2022-08-01T00:59:13;3.50;;;3.30;;
39864;SDS011;25538;48.392;9.976;2022-08-01T01:01:42;5.30;;;3.93;;
39864;SDS011;25538;48.392;9.976;2022-08-01T01:04:08;3.47;;;3.17;;
39864;SDS011;25538;48.392;9.976;2022-08-01T01:06:38;5.40;;;3.53;;
39864;SDS011;25538;48.392;9.976;2022-08-01T01:09:28;3.30;;;3.10;;
39864;SDS011;25538;48.392;9.976;2022-08-01T01:17:27;4.03;;;3.50;;
39864;SDS011;25538;48.392;9.976;2022-08-01T01:19:59;3.17;;;2.87;;
39864;SDS011;25538;48.392;9.976;2022-08-01T01:22:47;3.77;;;3.40;;
39864;SDS011;25538;48.392;9.976;2022-08-01T01:28:16;3.37;;;3.17;;
39864;SDS011;25538;48.392;9.976;2022-08-01T01:30:59;3.63;;;3.43;;
39864;SDS011;25538;48.392;9.976;2022-08-01T01:33:26;3.83;;;3.53;;
39864;SDS011;25538;48.392;9.976;2022-08-01T01:35:58;3.80;;;3.60;;
39864;SDS011;25538;48.392;9.976;2022-08-01T01:38:29;3.60;;;3.40;;
39864;SDS011;25538;48.392;9.976;2022-08-01T01:40:59;3.60;;;3.07;;
39864;SDS011;25538;48.392;9.976;2022-08-01T01:43:27;3.80;;;3.57;;
39864;SDS011;25538;48.392;9.976;2022-08-01T01:45:55;3.17;;;2.90;;
39864;SDS011;25538;48.392;9.976;2022-08-01T01:48:22;3.77;;;3.33;;
39864;SDS011;25538;48.392;9.976;2022-08-01T01:50:49;3.57;;;3.37;;
39864;SDS011;25538;48.392;9.976;2022-08-01T01:53:18;3.50;;;3.20;;
39864;SDS011;25538;48.392;9.976;2022-08-01T01:55:47;3.20;;;3.03;;
39864;SDS011;25538;48.392;9.976;2022-08-01T01:58:17;2.90;;;2.80;;
39864;SDS011;25538;48.392;9.976;2022-08-01T02:00:45;2.87;;;2.67;;
39864;SDS011;25538;48.392;9.976;2022-08-01T02:03:12;3.67;;;3.47;;
39864;SDS011;25538;48.392;9.976;2022-08-01T02:05:40;3.13;;;3.03;;
39864;SDS011;25538;48.392;9.976;2022-08-01T02:08:07;3.53;;;3.33;;
39864;SDS011;25538;48.392;9.976;2022-08-01T02:10:36;3.57;;;3.37;;
39864;SDS011;25538;48.392;9.976;2022-08-01T02:13:04;4.70;;;3.97;;
39864;SDS011;25538;48.392;9.976;2022-08-01T02:15:32;5.10;;;4.80;;
39864;SDS011;25538;48.392;9.976;2022-08-01T02:18:03;5.30;;;4.80;;
39864;SDS011;25538;48.392;9.976;2022-08-01T02:20:32;5.13;;;4.63;;
39864;SDS011;25538;48.392;9.976;2022-08-01T02:23:07;5.23;;;4.73;;
39864;SDS011;25538;48.392;9.976;2022-08-01T02:25:42;5.20;;;4.77;;
39864;SDS011;25538;48.392;9.976;2022-08-01T02:28:24;5.20;;;4.90;;
39864;SDS011;25538;48.392;9.976;2022-08-01T02:30:54;4.40;;;4.07;;
39864;SDS011;25538;48.392;9.976;2022-08-01T02:33:31;4.90;;;4.43;;
39864;SDS011;25538;48.392;9.976;2022-08-01T02:36:02;5.27;;;4.87;;
39864;SDS011;25538;48.392;9.976;2022-08-01T02:38:30;6.30;;;4.93;;
39864;SDS011;25538;48.392;9.976;2022-08-01T02:40:58;5.07;;;4.77;;
39864;SDS011;25538;48.392;9.976;2022-08-01T02:43:34;5.30;;;5.00;;
39864;SDS011;25538;48.392;9.976;2022-08-01T02:46:04;5.73;;;5.33;;
39864;SDS011;25538;48.392;9.976;2022-08-01T02:48:33;5.13;;;4.80;;
39864;SDS011;25538;48.392;9.976;2022-08-01T02:51:02;5.67;;;5.20;;
39864;SDS011;25538;48.392;9.976;2022-08-01T02:53:31;5.20;;;4.90;;
39864;SDS011;25538;48.392;9.976;2022-08-01T02:56:03;4.83;;;4.50;;
39864;SDS011;25538;48.392;9.976;2022-08-01T02:58:31;4.90;;;4.60;;
39864;SDS011;25538;48.392;9.976;2022-08-01T03:00:58;5.83;;;5.43;;
39864;SDS011;25538;48.392;9.976;2022-08-01T03:03:26;5.07;;;4.57;;
39864;SDS011;25538;48.392;9.976;2022-08-01T03:05:52;5.00;;;4.70;;
39864;SDS011;25538;48.392;9.976;2022-08-01T03:08:19;4.83;;;4.43;;
39864;SDS011;25538;48.392;9.976;2022-08-01T03:10:46;4.47;;;4.17;;
39864;SDS011;25538;48.392;9.976;2022-08-01T03:13:14;4.80;;;4.40;;
39864;SDS011;25538;48.392;9.976;2022-08-01T03:15:41;5.90;;;5.37;;
39864;SDS011;25538;48.392;9.976;2022-08-01T03:18:09;5.67;;;5.17;;
39864;SDS011;25538;48.392;9.976;2022-08-01T03:20:37;5.63;;;5.23;;
39864;SDS011;25538;48.392;9.976;2022-08-01T03:23:04;6.00;;;5.50;;
39864;SDS011;25538;48.392;9.976;2022-08-01T03:25:32;6.37;;;5.80;;
39864;SDS011;25538;48.392;9.976;2022-08-01T03:28:02;6.40;;;6.00;;
39864;SDS011;25538;48.392;9.976;2022-08-01T03:30:30;7.00;;;6.40;;
39864;SDS011;25538;48.392;9.976;2022-08-01T03:32:57;6.77;;;6.27;;
39864;SDS011;25538;48.392;9.976;2022-08-01T03:35:26;6.53;;;6.00;;
39864;SDS011;25538;48.392;9.976;2022-08-01T03:37:55;6.50;;;5.90;;
39864;SDS011;25538;48.392;9.976;2022-08-01T03:40:26;6.10;;;5.50;;
39864;SDS011;25538;48.392;9.976;2022-08-01T03:43:15;6.73;;;6.10;;
39864;SDS011;25538;48.392;9.976;2022-08-01T03:45:50;6.75;;;6.25;;
39864;SDS011;25538;48.392;9.976;2022-08-01T03:48:18;7.65;;;6.85;;
39864;SDS011;25538;48.392;9.976;2022-08-01T03:50:51;7.00;;;6.40;;
39864;SDS011;25538;48.392;9.976;2022-08-01T03:53:22;6.60;;;6.00;;
39864;SDS011;25538;48.392;9.976;2022-08-01T03:55:51;6.07;;;5.67;;
39864;SDS011;25538;48.392;9.976;2022-08-01T03:58:18;7.03;;;6.43;;
39864;SDS011;25538;48.392;9.976;2022-08-01T04:00:44;6.43;;;6.00;;
39864;SDS011;25538;48.392;9.976;2022-08-01T04:03:13;6.10;;;5.60;;
39864;SDS011;25538;48.392;9.976;2022-08-01T04:05:40;6.55;;;5.95;;
39864;SDS011;25538;48.392;9.976;2022-08-01T04:08:07;5.57;;;5.20;;
39864;SDS011;25538;48.392;9.976;2022-08-01T04:10:34;6.20;;;5.70;;
39864;SDS011;25538;48.392;9.976;2022-08-01T04:13:00;6.63;;;6.13;;
39864;SDS011;25538;48.392;9.976;2022-08-01T04:15:26;6.25;;;5.78;;
39864;SDS011;25538;48.392;9.976;2022-08-01T04:17:52;6.20;;;5.73;;
39864;SDS011;25538;48.392;9.976;2022-08-01T04:20:19;5.53;;;5.13;;
39864;SDS011;25538;48.392;9.976;2022-08-01T04:22:46;5.60;;;5.20;;
39864;SDS011;25538;48.392;9.976;2022-08-01T04:25:14;5.72;;;5.22;;
39864;SDS011;25538;48.392;9.976;2022-08-01T04:27:45;5.00;;;4.53;;
39864;SDS011;25538;48.392;9.976;2022-08-01T04:30:14;6.28;;;5.78;;
39864;SDS011;25538;48.392;9.976;2022-08-01T04:32:43;6.00;;;5.50;;
39864;SDS011;25538;48.392;9.976;2022-08-01T04:35:11;5.97;;;5.57;;
39864;SDS011;25538;48.392;9.976;2022-08-01T04:37:41;5.15;;;4.85;;
39864;SDS011;25538;48.392;9.976;2022-08-01T04:40:10;5.38;;;4.97;;
39864;SDS011;25538;48.392;9.976;2022-08-01T04:42:36;5.90;;;5.50;;
39864;SDS011;25538;48.392;9.976;2022-08-01T04:45:03;5.43;;;5.13;;
39864;SDS011;25538;48.392;9.976;2022-08-01T04:47:29;5.93;;;5.43;;
39864;SDS011;25538;48.392;9.976;2022-08-01T04:49:56;6.90;;;5.40;;
39864;SDS011;25538;48.392;9.976;2022-08-01T04:52:22;6.25;;;5.75;;
39864;SDS011;25538;48.392;9.976;2022-08-01T04:54:48;5.70;;;5.30;;
39864;SDS011;25538;48.392;9.976;2022-08-01T04:57:14;5.43;;;5.03;;
39864;SDS011;25538;48.392;9.976;2022-08-01T04:59:41;5.87;;;5.37;;
39864;SDS011;25538;48.392;9.976;2022-08-01T05:02:18;5.57;;;5.28;;
39864;SDS011;25538;48.392;9.976;2022-08-01T05:04:44;7.20;;;6.70;;
39864;SDS011;25538;48.392;9.976;2022-08-01T05:07:11;5.63;;;5.22;;
39864;SDS011;25538;48.392;9.976;2022-08-01T05:09:38;5.82;;;5.43;;
39864;SDS011;25538;48.392;9.976;2022-08-01T05:12:08;5.88;;;5.47;;
39864;SDS011;25538;48.392;9.976;2022-08-01T05:14:36;5.35;;;5.05;;
39864;SDS011;25538;48.392;9.976;2022-08-01T05:17:02;4.97;;;4.68;;
39864;SDS011;25538;48.392;9.976;2022-08-01T05:19:30;5.78;;;5.32;;
39864;SDS011;25538;48.392;9.976;2022-08-01T05:22:00;5.55;;;5.15;;
39864;SDS011;25538;48.392;9.976;2022-08-01T05:24:33;5.73;;;5.33;;
39864;SDS011;25538;48.392;9.976;2022-08-01T05:27:00;5.20;;;4.80;;
39864;SDS011;25538;48.392;9.976;2022-08-01T05:29:26;5.97;;;5.65;;
39864;SDS011;25538;48.392;9.976;2022-08-01T05:31:53;5.70;;;5.30;;
39864;SDS011;25538;48.392;9.976;2022-08-01T05:34:19;6.03;;;5.57;;
39864;SDS011;25538;48.392;9.976;2022-08-01T05:36:46;5.28;;;4.88;;
39864;SDS011;25538;48.392;9.976;2022-08-01T05:39:12;6.00;;;5.60;;
39864;SDS011;25538;48.392;9.976;2022-08-01T05:41:38;5.68;;;5.28;;
39864;SDS011;25538;48.392;9.976;2022-08-01T05:44:04;5.68;;;5.25;;
39864;SDS011;25538;48.392;9.976;2022-08-01T05:46:30;5.33;;;4.83;;
39864;SDS011;25538;48.392;9.976;2022-08-01T05:48:57;5.63;;;5.23;;
39864;SDS011;25538;48.392;9.976;2022-08-01T05:51:24;4.50;;;4.10;;
39864;SDS011;25538;48.392;9.976;2022-08-01T05:53:50;4.90;;;4.53;;
39864;SDS011;25538;48.392;9.976;2022-08-01T05:56:17;5.97;;;5.00;;
39864;SDS011;25538;48.392;9.976;2022-08-01T05:58:44;6.23;;;5.70;;
39864;SDS011;25538;48.392;9.976;2022-08-01T06:01:09;6.50;;;5.90;;
39864;SDS011;25538;48.392;9.976;2022-08-01T06:03:35;5.63;;;5.07;;
39864;SDS011;25538;48.392;9.976;2022-08-01T06:06:02;5.07;;;4.60;;
39864;SDS011;25538;48.392;9.976;2022-08-01T06:08:28;4.83;;;4.53;;
39864;SDS011;25538;48.392;9.976;2022-08-01T06:10:54;5.20;;;4.90;;
39864;SDS011;25538;48.392;9.976;2022-08-01T06:13:21;5.77;;;5.27;;
39864;SDS011;25538;48.392;9.976;2022-08-01T06:15:47;5.80;;;5.40;;
39864;SDS011;25538;48.392;9.976;2022-08-01T06:18:13;5.80;;;5.40;;
39864;SDS011;25538;48.392;9.976;2022-08-01T06:20:40;5.67;;;5.27;;
39864;SDS011;25538;48.392;9.976;2022-08-01T06:23:06;5.30;;;4.90;;
39864;SDS011;25538;48.392;9.976;2022-08-01T06:25:32;5.50;;;5.20;;
39864;SDS011;25538;48.392;9.976;2022-08-01T06:27:59;5.63;;;5.23;;
39864;SDS011;25538;48.392;9.976;2022-08-01T06:30:25;5.17;;;4.77;;
39864;SDS011;25538;48.392;9.976;2022-08-01T06:32:51;5.00;;;4.60;;
39864;SDS011;25538;48.392;9.976;2022-08-01T06:35:17;4.77;;;4.47;;
39864;SDS011;25538;48.392;9.976;2022-08-01T06:37:44;6.00;;;5.60;;
39864;SDS011;25538;48.392;9.976;2022-08-01T06:40:12;5.20;;;4.80;;
39864;SDS011;25538;48.392;9.976;2022-08-01T06:42:39;5.33;;;4.83;;
39864;SDS011;25538;48.392;9.976;2022-08-01T06:45:05;5.60;;;5.20;;
39864;SDS011;25538;48.392;9.976;2022-08-01T06:47:35;5.33;;;4.90;;
39864;SDS011;25538;48.392;9.976;2022-08-01T06:50:02;6.00;;;4.93;;
39864;SDS011;25538;48.392;9.976;2022-08-01T06:52:29;5.90;;;5.47;;
39864;SDS011;25538;48.392;9.976;2022-08-01T06:54:55;6.27;;;5.03;;
39864;SDS011;25538;48.392;9.976;2022-08-01T06:57:21;5.80;;;5.30;;
39864;SDS011;25538;48.392;9.976;2022-08-01T06:59:47;4.60;;;4.20;;
39864;SDS011;25538;48.392;9.976;2022-08-01T07:02:13;5.70;;;5.27;;
39864;SDS011;25538;48.392;9.976;2022-08-01T07:04:39;5.87;;;5.47;;
39864;SDS011;25538;48.392;9.976;2022-08-01T07:07:05;5.30;;;5.00;;
39864;SDS011;25538;48.392;9.976;2022-08-01T07:09:31;5.63;;;5.23;;
39864;SDS011;25538;48.392;9.976;2022-08-01T07:11:57;6.57;;;5.33;;
39864;SDS011;25538;48.392;9.976;2022-08-01T07:14:23;6.37;;;5.87;;
39864;SDS011;25538;48.392;9.976;2022-08-01T07:16:49;5.80;;;5.50;;
39864;SDS011;25538;48.392;9.976;2022-08-01T07:19:16;5.50;;;5.20;;
39864;SDS011;25538;48.392;9.976;2022-08-01T07:21:42;6.13;;;5.63;;
39864;SDS011;25538;48.392;9.976;2022-08-01T07:24:09;6.77;;;5.93;;
39864;SDS011;25538;48.392;9.976;2022-08-01T07:26:36;4.97;;;4.67;;
39864;SDS011;25538;48.392;9.976;2022-08-01T07:29:02;5.03;;;4.73;;
39864;SDS011;25538;48.392;9.976;2022-08-01T07:31:28;5.10;;;4.70;;
39864;SDS011;25538;48.392;9.976;2022-08-01T07:33:54;4.83;;;4.40;;
39864;SDS011;25538;48.392;9.976;2022-08-01T07:36:20;6.20;;;5.60;;
39864;SDS011;25538;48.392;9.976;2022-08-01T07:38:46;4.80;;;4.30;;
39864;SDS011;25538;48.392;9.976;2022-08-01T07:41:13;5.57;;;5.07;;
39864;SDS011;25538;48.392;9.976;2022-08-01T07:43:39;5.20;;;4.90;;
39864;SDS011;25538;48.392;9.976;2022-08-01T07:46:05;4.50;;;4.20;;
39864;SDS011;25538;48.392;9.976;2022-08-01T07:48:31;4.13;;;3.83;;
39864;SDS011;25538;48.392;9.976;2022-08-01T07:50:57;5.03;;;4.73;;
39864;SDS011;25538;48.392;9.976;2022-08-01T07:53:23;4.80;;;4.50;;
39864;SDS011;25538;48.392;9.976;2022-08-01T07:55:49;5.00;;;4.73;;
39864;SDS011;25538;48.392;9.976;2022-08-01T07:58:16;4.73;;;4.40;;
39864;SDS011;25538;48.392;9.976;2022-08-01T08:00:42;5.00;;;4.60;;
39864;SDS011;25538;48.392;9.976;2022-08-01T08:03:08;6.23;;;4.53;;
39864;SDS011;25538;48.392;9.976;2022-08-01T08:05:34;5.03;;;4.77;;
39864;SDS011;25538;48.392;9.976;2022-08-01T08:08:09;5.33;;;4.83;;
39864;SDS011;25538;48.392;9.976;2022-08-01T08:10:36;4.40;;;4.10;;
39864;SDS011;25538;48.392;9.976;2022-08-01T08:13:02;4.43;;;4.13;;
39864;SDS011;25538;48.392;9.976;2022-08-01T08:15:28;5.03;;;4.63;;
39864;SDS011;25538;48.392;9.976;2022-08-01T08:17:54;4.80;;;4.43;;
39864;SDS011;25538;48.392;9.976;2022-08-01T08:20:20;4.43;;;4.03;;
39864;SDS011;25538;48.392;9.976;2022-08-01T08:22:50;4.67;;;4.30;;
39864;SDS011;25538;48.392;9.976;2022-08-01T08:25:17;4.23;;;3.93;;
39864;SDS011;25538;48.392;9.976;2022-08-01T08:27:45;4.50;;;4.20;;
39864;SDS011;25538;48.392;9.976;2022-08-01T08:30:11;4.60;;;4.30;;
39864;SDS011;25538;48.392;9.976;2022-08-01T08:32:38;3.90;;;3.70;;
39864;SDS011;25538;48.392;9.976;2022-08-01T08:35:05;4.53;;;4.10;;
39864;SDS011;25538;48.392;9.976;2022-08-01T08:37:31;5.53;;;4.03;;
39864;SDS011;25538;48.392;9.976;2022-08-01T08:39:58;3.90;;;3.60;;
39864;SDS011;25538;48.392;9.976;2022-08-01T08:42:24;5.37;;;3.93;;
39864;SDS011;25538;48.392;9.976;2022-08-01T08:44:50;3.77;;;3.57;;
39864;SDS011;25538;48.392;9.976;2022-08-01T08:47:16;4.50;;;4.10;;
39864;SDS011;25538;48.392;9.976;2022-08-01T08:49:44;4.00;;;3.70;;
39864;SDS011;25538;48.392;9.976;2022-08-01T08:52:10;3.73;;;3.53;;
39864;SDS011;25538;48.392;9.976;2022-08-01T08:54:37;4.90;;;3.73;;
39864;SDS011;25538;48.392;9.976;2022-08-01T08:57:06;3.97;;;3.60;;
39864;SDS011;25538;48.392;9.976;2022-08-01T08:59:32;4.23;;;4.03;;
39864;SDS011;25538;48.392;9.976;2022-08-01T09:01:58;4.20;;;3.17;;
39864;SDS011;25538;48.392;9.976;2022-08-01T09:04:24;4.50;;;4.20;;
39864;SDS011;25538;48.392;9.976;2022-08-01T09:06:52;3.87;;;3.60;;
39864;SDS011;25538;48.392;9.976;2022-08-01T09:09:18;5.63;;;3.90;;
39864;SDS011;25538;48.392;9.976;2022-08-01T09:11:44;3.90;;;3.70;;
39864;SDS011;25538;48.392;9.976;2022-08-01T09:14:17;3.63;;;3.43;;
39864;SDS011;25538;48.392;9.976;2022-08-01T09:16:59;3.73;;;3.53;;
39864;SDS011;25538;48.392;9.976;2022-08-01T09:19:39;3.97;;;3.67;;
39864;SDS011;25538;48.392;9.976;2022-08-01T09:22:07;4.20;;;3.20;;
39864;SDS011;25538;48.392;9.976;2022-08-01T09:24:38;2.50;;;2.40;;
39864;SDS011;25538;48.392;9.976;2022-08-01T09:27:18;2.47;;;2.37;;
39864;SDS011;25538;48.392;9.976;2022-08-01T09:29:45;2.83;;;2.50;;
39864;SDS011;25538;48.392;9.976;2022-08-01T09:32:11;2.30;;;2.20;;
39864;SDS011;25538;48.392;9.976;2022-08-01T09:34:37;2.63;;;2.53;;
39864;SDS011;25538;48.392;9.976;2022-08-01T09:37:03;2.63;;;2.50;;
39864;SDS011;25538;48.392;9.976;2022-08-01T09:39:32;3.97;;;2.67;;
39864;SDS011;25538;48.392;9.976;2022-08-01T09:42:24;2.87;;;2.40;;
39864;SDS011;25538;48.392;9.976;2022-08-01T09:44:49;2.83;;;2.67;;
39864;SDS011;25538;48.392;9.976;2022-08-01T09:47:15;2.50;;;2.40;;
39864;SDS011;25538;48.392;9.976;2022-08-01T09:49:42;1.93;;;1.83;;
39864;SDS011;25538;48.392;9.976;2022-08-01T09:52:13;2.57;;;2.47;;
39864;SDS011;25538;48.392;9.976;2022-08-01T09:54:42;2.60;;;2.50;;
39864;SDS011;25538;48.392;9.976;2022-08-01T09:57:17;2.30;;;2.20;;
39864;SDS011;25538;48.392;9.976;2022-08-01T09:59:45;3.27;;;3.00;;
39864;SDS011;25538;48.392;9.976;2022-08-01T10:02:13;2.80;;;2.60;;
39864;SDS011;25538;48.392;9.976;2022-08-01T10:04:52;2.63;;;2.53;;
39864;SDS011;25538;48.392;9.976;2022-08-01T10:07:18;2.23;;;2.03;;
39864;SDS011;25538;48.392;9.976;2022-08-01T10:09:45;3.23;;;1.80;;
39864;SDS011;25538;48.392;9.976;2022-08-01T10:12:16;2.37;;;2.27;;
39864;SDS011;25538;48.392;9.976;2022-08-01T10:14:45;2.70;;;2.60;;
39864;SDS011;25538;48.392;9.976;2022-08-01T10:17:13;2.60;;;2.37;;
39864;SDS011;25538;48.392;9.976;2022-08-01T10:19:41;2.20;;;2.10;;
39864;SDS011;25538;48.392;9.976;2022-08-01T10:22:09;2.20;;;2.10;;
39864;SDS011;25538;48.392;9.976;2022-08-01T10:24:37;2.67;;;2.57;;
39864;SDS011;25538;48.392;9.976;2022-08-01T10:27:05;2.57;;;2.40;;
39864;SDS011;25538;48.392;9.976;2022-08-01T10:29:54;2.13;;;2.03;;
39864;SDS011;25538;48.392;9.976;2022-08-01T10:32:31;2.30;;;2.20;;
39864;SDS011;25538;48.392;9.976;2022-08-01T10:34:58;2.63;;;2.53;;
39864;SDS011;25538;48.392;9.976;2022-08-01T10:37:25;2.80;;;2.60;;
39864;SDS011;25538;48.392;9.976;2022-08-01T10:39:52;2.93;;;2.60;;
39864;SDS011;25538;48.392;9.976;2022-08-01T10:42:19;2.43;;;2.33;;
39864;SDS011;25538;48.392;9.976;2022-08-01T10:44:45;2.30;;;2.20;;
39864;SDS011;25538;48.392;9.976;2022-08-01T10:47:14;2.60;;;2.50;;
39864;SDS011;25538;48.392;9.976;2022-08-01T10:49:58;2.53;;;2.40;;
39864;SDS011;25538;48.392;9.976;2022-08-01T10:52:26;2.33;;;2.23;;
39864;SDS011;25538;48.392;9.976;2022-08-01T10:55:03;2.50;;;2.20;;
39864;SDS011;25538;48.392;9.976;2022-08-01T10:57:43;2.10;;;2.00;;
39864;SDS011;25538;48.392;9.976;2022-08-01T11:00:17;1.87;;;1.77;;
39864;SDS011;25538;48.392;9.976;2022-08-01T11:02:56;2.43;;;2.30;;
39864;SDS011;25538;48.392;9.976;2022-08-01T11:05:26;2.67;;;2.47;;
39864;SDS011;25538;48.392;9.976;2022-08-01T11:07:53;3.00;;;2.77;;
39864;SDS011;25538;48.392;9.976;2022-08-01T11:16:25;2.47;;;2.27;;
39864;SDS011;25538;48.392;9.976;2022-08-01T11:18:55;2.00;;;1.90;;
39864;SDS011;25538;48.392;9.976;2022-08-01T11:21:21;2.20;;;2.10;;
39864;SDS011;25538;48.392;9.976;2022-08-01T11:23:50;2.17;;;2.07;;
39864;SDS011;25538;48.392;9.976;2022-08-01T11:26:19;2.00;;;1.90;;
39864;SDS011;25538;48.392;9.976;2022-08-01T11:29:10;2.40;;;2.30;;
39864;SDS011;25538;48.392;9.976;2022-08-01T11:31:39;2.20;;;2.10;;
39864;SDS011;25538;48.392;9.976;2022-08-01T11:34:05;2.30;;;2.20;;
39864;SDS011;25538;48.392;9.976;2022-08-01T11:36:31;2.57;;;2.40;;
39864;SDS011;25538;48.392;9.976;2022-08-01T11:41:33;1.97;;;1.87;;
39864;SDS011;25538;48.392;9.976;2022-08-01T11:44:11;2.53;;;2.30;;
39864;SDS011;25538;48.392;9.976;2022-08-01T11:54:46;2.70;;;2.60;;
39864;SDS011;25538;48.392;9.976;2022-08-01T11:57:20;3.30;;;3.10;;
39864;SDS011;25538;48.392;9.976;2022-08-01T11:59:49;3.90;;;3.70;;
39864;SDS011;25538;48.392;9.976;2022-08-01T12:02:24;3.80;;;3.20;;
39864;SDS011;25538;48.392;9.976;2022-08-01T12:04:55;3.97;;;3.67;;
39864;SDS011;25538;48.392;9.976;2022-08-01T12:07:27;3.57;;;3.10;;
39864;SDS011;25538;48.392;9.976;2022-08-01T12:12:34;3.63;;;3.33;;
39864;SDS011;25538;48.392;9.976;2022-08-01T12:15:03;3.73;;;3.47;;
39864;SDS011;25538;48.392;9.976;2022-08-01T12:17:31;3.77;;;3.50;;
39864;SDS011;25538;48.392;9.976;2022-08-01T12:20:01;3.93;;;3.63;;
39864;SDS011;25538;48.392;9.976;2022-08-01T12:22:29;4.00;;;3.70;;
39864;SDS011;25538;48.392;9.976;2022-08-01T12:24:56;5.17;;;3.80;;
39864;SDS011;25538;48.392;9.976;2022-08-01T12:27:37;5.33;;;4.10;;
39864;SDS011;25538;48.392;9.976;2022-08-01T12:30:05;5.10;;;4.00;;
39864;SDS011;25538;48.392;9.976;2022-08-01T12:32:34;5.60;;;4.10;;
39864;SDS011;25538;48.392;9.976;2022-08-01T12:35:04;3.90;;;3.70;;
39864;SDS011;25538;48.392;9.976;2022-08-01T12:37:31;5.13;;;4.23;;
39864;SDS011;25538;48.392;9.976;2022-08-01T12:40:02;6.10;;;3.73;;
39864;SDS011;25538;48.392;9.976;2022-08-01T12:42:36;4.67;;;4.10;;
39864;SDS011;25538;48.392;9.976;2022-08-01T12:45:05;4.90;;;4.27;;
39864;SDS011;25538;48.392;9.976;2022-08-01T12:47:33;4.67;;;4.20;;
39864;SDS011;25538;48.392;9.976;2022-08-01T12:50:01;4.13;;;3.63;;
39864;SDS011;25538;48.392;9.976;2022-08-01T12:52:28;10.60;;;4.93;;
39864;SDS011;25538;48.392;9.976;2022-08-01T12:55:03;3.73;;;3.43;;
39864;SDS011;25538;48.392;9.976;2022-08-01T12:57:35;4.57;;;4.27;;
39864;SDS011;25538;48.392;9.976;2022-08-01T13:00:06;4.83;;;4.53;;
39864;SDS011;25538;48.392;9.976;2022-08-01T13:02:45;4.37;;;3.70;;
39864;SDS011;25538;48.392;9.976;2022-08-01T13:05:14;4.23;;;3.83;;
39864;SDS011;25538;48.392;9.976;2022-08-01T13:07:50;4.20;;;3.80;;
39864;SDS011;25538;48.392;9.976;2022-08-01T13:10:29;3.47;;;3.27;;
39864;SDS011;25538;48.392;9.976;2022-08-01T13:12:56;4.63;;;3.53;;
39864;SDS011;25538;48.392;9.976;2022-08-01T13:15:30;3.67;;;3.47;;
39864;SDS011;25538;48.392;9.976;2022-08-01T13:17:59;4.00;;;3.60;;
39864;SDS011;25538;48.392;9.976;2022-08-01T13:20:30;4.17;;;3.80;;
39864;SDS011;25538;48.392;9.976;2022-08-01T13:23:14;4.23;;;3.93;;
39864;SDS011;25538;48.392;9.976;2022-08-01T13:26:00;3.63;;;3.43;;
39864;SDS011;25538;48.392;9.976;2022-08-01T13:28:27;3.87;;;3.57;;
39864;SDS011;25538;48.392;9.976;2022-08-01T13:31:04;5.37;;;4.33;;
39864;SDS011;25538;48.392;9.976;2022-08-01T13:33:41;4.53;;;4.23;;
39864;SDS011;25538;48.392;9.976;2022-08-01T13:36:12;4.50;;;4.07;;
39864;SDS011;25538;48.392;9.976;2022-08-01T13:38:39;4.90;;;4.60;;
39864;SDS011;25538;48.392;9.976;2022-08-01T13:41:25;4.37;;;3.97;;
39864;SDS011;25538;48.392;9.976;2022-08-01T13:43:51;4.10;;;3.67;;
39864;SDS011;25538;48.392;9.976;2022-08-01T13:46:18;3.77;;;3.57;;
39864;SDS011;25538;48.392;9.976;2022-08-01T13:48:44;4.43;;;4.03;;
39864;SDS011;25538;48.392;9.976;2022-08-01T13:51:10;4.50;;;4.20;;
39864;SDS011;25538;48.392;9.976;2022-08-01T13:53:36;4.70;;;3.80;;
39864;SDS011;25538;48.392;9.976;2022-08-01T13:56:02;4.33;;;4.03;;
39864;SDS011;25538;48.392;9.976;2022-08-01T13:58:28;4.27;;;4.00;;
39864;SDS011;25538;48.392;9.976;2022-08-01T14:00:54;4.00;;;3.70;;
39864;SDS011;25538;48.392;9.976;2022-08-01T14:03:21;3.87;;;3.57;;
39864;SDS011;25538;48.392;9.976;2022-08-01T14:05:47;4.73;;;4.40;;
39864;SDS011;25538;48.392;9.976;2022-08-01T14:08:14;3.90;;;3.60;;
39864;SDS011;25538;48.392;9.976;2022-08-01T14:10:40;3.20;;;3.00;;
39864;SDS011;25538;48.392;9.976;2022-08-01T14:13:06;4.03;;;3.73;;
39864;SDS011;25538;48.392;9.976;2022-08-01T14:15:32;2.83;;;2.63;;
39864;SDS011;25538;48.392;9.976;2022-08-01T14:17:58;3.23;;;3.03;;
39864;SDS011;25538;48.392;9.976;2022-08-01T14:20:25;3.40;;;3.20;;
39864;SDS011;25538;48.392;9.976;2022-08-01T14:22:51;3.20;;;2.90;;
39864;SDS011;25538;48.392;9.976;2022-08-01T14:25:17;3.37;;;3.07;;
39864;SDS011;25538;48.392;9.976;2022-08-01T14:27:44;2.90;;;2.70;;
39864;SDS011;25538;48.392;9.976;2022-08-01T14:30:10;3.20;;;2.70;;
39864;SDS011;25538;48.392;9.976;2022-08-01T14:32:37;3.10;;;2.80;;
39864;SDS011;25538;48.392;9.976;2022-08-01T14:35:03;3.70;;;3.50;;
39864;SDS011;25538;48.392;9.976;2022-08-01T14:37:31;2.90;;;2.70;;
39864;SDS011;25538;48.392;9.976;2022-08-01T14:39:57;3.17;;;2.97;;
39864;SDS011;25538;48.392;9.976;2022-08-01T14:42:24;2.67;;;2.57;;
39864;SDS011;25538;48.392;9.976;2022-08-01T14:44:50;3.40;;;3.23;;
39864;SDS011;25538;48.392;9.976;2022-08-01T14:47:17;3.30;;;3.10;;
39864;SDS011;25538;48.392;9.976;2022-08-01T14:49:42;3.07;;;2.87;;
39864;SDS011;25538;48.392;9.976;2022-08-01T14:52:08;3.03;;;2.83;;
39864;SDS011;25538;48.392;9.976;2022-08-01T14:54:34;3.13;;;2.87;;
39864;SDS011;25538;48.392;9.976;2022-08-01T14:57:00;3.20;;;3.00;;
39864;SDS011;25538;48.392;9.976;2022-08-01T14:59:26;3.60;;;3.30;;
39864;SDS011;25538;48.392;9.976;2022-08-01T15:01:52;4.20;;;3.83;;
39864;SDS011;25538;48.392;9.976;2022-08-01T15:04:18;3.53;;;3.23;;
39864;SDS011;25538;48.392;9.976;2022-08-01T15:06:44;3.60;;;3.40;;
39864;SDS011;25538;48.392;9.976;2022-08-01T15:09:10;4.10;;;3.80;;
39864;SDS011;25538;48.392;9.976;2022-08-01T15:11:36;3.57;;;3.37;;
39864;SDS011;25538;48.392;9.976;2022-08-01T15:14:02;3.97;;;3.77;;
39864;SDS011;25538;48.392;9.976;2022-08-01T15:16:47;3.67;;;3.47;;
39864;SDS011;25538;48.392;9.976;2022-08-01T15:19:13;3.90;;;3.60;;
39864;SDS011;25538;48.392;9.976;2022-08-01T15:21:39;3.50;;;3.30;;
39864;SDS011;25538;48.392;9.976;2022-08-01T15:24:05;3.83;;;3.53;;